createdAt,value
2018-05-19T00:00:32.555Z,0.00
2018-05-19T00:01:32.545Z,0.00
2018-05-19T00:02:32.549Z,0.00
2018-05-19T00:03:32.535Z,0.00
2018-05-19T00:04:32.531Z,0.00
2018-05-19T00:05:32.516Z,0.00
2018-05-19T00:06:32.512Z,0.00
2018-05-19T00:07:32.507Z,0.00
2018-05-19T00:08:36.613Z,0.00
2018-05-19T00:09:32.491Z,0.00
2018-05-19T00:10:32.480Z,0.00
2018-05-19T00:11:32.475Z,0.00
2018-05-19T00:12:32.461Z,0.00
2018-05-19T00:13:32.456Z,0.00
2018-05-19T00:14:32.451Z,0.00
2018-05-19T00:15:32.437Z,0.00
2018-05-19T00:16:32.433Z,0.00
2018-05-19T00:17:32.423Z,0.00
2018-05-19T00:18:32.421Z,0.00
2018-05-19T00:19:32.423Z,0.00
2018-05-19T00:20:32.405Z,0.00
2018-05-19T00:21:32.391Z,0.00
2018-05-19T00:22:32.387Z,0.00
2018-05-19T00:23:32.377Z,0.00
2018-05-19T00:24:32.377Z,0.00
2018-05-19T00:25:32.366Z,0.00
2018-05-19T00:26:32.356Z,0.00
2018-05-19T00:27:32.350Z,0.00
2018-05-19T00:28:32.345Z,0.00
2018-05-19T00:29:32.332Z,0.00
2018-05-19T00:30:32.324Z,0.00
2018-05-19T00:31:32.320Z,0.00
2018-05-19T00:32:32.312Z,0.00
2018-05-19T00:33:32.304Z,0.00
2018-05-19T00:34:32.300Z,0.00
2018-05-19T00:35:32.283Z,0.00
2018-05-19T00:36:32.281Z,0.00
2018-05-19T00:37:32.268Z,0.00
2018-05-19T00:38:32.264Z,0.00
2018-05-19T00:39:32.258Z,0.00
2018-05-19T00:40:32.243Z,0.00
2018-05-19T00:41:32.238Z,0.00
2018-05-19T00:42:32.232Z,0.00
2018-05-19T00:43:32.221Z,0.00
2018-05-19T00:44:32.217Z,0.00
2018-05-19T00:45:32.205Z,0.00
2018-05-19T00:46:32.200Z,0.00
2018-05-19T00:47:32.196Z,0.00
2018-05-19T00:48:32.189Z,0.00
2018-05-19T00:49:32.174Z,0.00
2018-05-19T00:50:32.173Z,0.00
2018-05-19T00:51:32.186Z,0.00
2018-05-19T00:52:32.197Z,0.00
2018-05-19T00:53:32.147Z,0.00
2018-05-19T00:54:32.143Z,0.00
2018-05-19T00:55:32.141Z,0.00
2018-05-19T00:56:32.123Z,0.00
2018-05-19T00:57:32.133Z,0.00
2018-05-19T00:58:32.108Z,0.00
2018-05-19T00:59:32.101Z,0.00
2018-05-19T01:00:32.093Z,0.00
2018-05-19T01:01:32.083Z,0.00
2018-05-19T01:02:32.077Z,0.00
2018-05-19T01:03:32.066Z,0.00
2018-05-19T01:04:32.062Z,0.00
2018-05-19T01:05:32.051Z,0.00
2018-05-19T01:06:32.042Z,0.00
2018-05-19T01:07:32.038Z,0.00
2018-05-19T01:08:32.025Z,0.00
2018-05-19T01:09:32.022Z,0.00
2018-05-19T01:10:32.008Z,0.00
2018-05-19T01:11:32.003Z,0.00
2018-05-19T01:12:31.998Z,0.00
2018-05-19T01:13:31.987Z,0.00
2018-05-19T01:14:31.979Z,0.00
2018-05-19T01:15:31.972Z,0.00
2018-05-19T01:16:31.965Z,0.00
2018-05-19T01:17:31.953Z,0.00
2018-05-19T01:18:31.944Z,0.00
2018-05-19T01:19:31.941Z,0.00
2018-05-19T01:20:31.931Z,0.00
2018-05-19T01:21:31.927Z,0.00
2018-05-19T01:22:31.917Z,0.00
2018-05-19T01:23:31.915Z,0.00
2018-05-19T01:24:31.900Z,0.00
2018-05-19T01:25:31.892Z,0.00
2018-05-19T01:26:31.883Z,0.00
2018-05-19T01:27:31.881Z,0.00
2018-05-19T01:28:31.866Z,0.00
2018-05-19T01:29:31.861Z,0.00
2018-05-19T01:30:31.854Z,0.00
2018-05-19T01:31:31.844Z,0.00
2018-05-19T01:32:31.836Z,0.00
2018-05-19T01:33:31.825Z,0.00
2018-05-19T01:34:31.826Z,0.00
2018-05-19T01:35:31.812Z,0.00
2018-05-19T01:36:31.805Z,0.00
2018-05-19T01:37:31.794Z,0.00
2018-05-19T01:38:31.787Z,0.00
2018-05-19T01:39:31.781Z,0.00
2018-05-19T01:40:31.779Z,0.00
2018-05-19T01:41:31.783Z,0.00
2018-05-19T01:42:31.767Z,0.00
2018-05-19T01:43:31.759Z,0.00
2018-05-19T01:44:31.743Z,0.00
2018-05-19T01:45:31.732Z,0.00
2018-05-19T01:46:31.723Z,0.00
2018-05-19T01:47:31.716Z,0.00
2018-05-19T01:48:31.707Z,0.00
2018-05-19T01:49:31.699Z,0.00
2018-05-19T01:50:31.695Z,0.00
2018-05-19T01:51:31.687Z,0.00
2018-05-19T01:52:31.678Z,0.00
2018-05-19T01:53:31.667Z,0.00
2018-05-19T01:54:31.660Z,0.00
2018-05-19T01:55:31.655Z,0.00
2018-05-19T01:56:31.649Z,0.00
2018-05-19T01:57:31.642Z,0.00
2018-05-19T01:58:31.635Z,0.00
2018-05-19T01:59:31.619Z,0.00
2018-05-19T02:00:31.611Z,0.00
2018-05-19T02:01:31.604Z,0.00
2018-05-19T02:02:31.598Z,0.00
2018-05-19T02:03:31.594Z,0.00
2018-05-19T02:04:31.581Z,0.00
2018-05-19T02:05:31.572Z,0.00
2018-05-19T02:06:31.561Z,0.00
2018-05-19T02:07:31.559Z,0.00
2018-05-19T02:08:31.553Z,0.00
2018-05-19T02:09:31.540Z,0.00
2018-05-19T02:10:31.528Z,0.00
2018-05-19T02:11:31.522Z,0.00
2018-05-19T02:12:31.516Z,0.00
2018-05-19T02:13:31.512Z,0.00
2018-05-19T02:14:31.498Z,0.00
2018-05-19T02:15:31.502Z,0.00
2018-05-19T02:16:31.482Z,0.00
2018-05-19T02:17:31.483Z,0.00
2018-05-19T02:18:31.465Z,0.00
2018-05-19T02:19:31.461Z,0.00
2018-05-19T02:20:31.456Z,0.00
2018-05-19T02:21:31.442Z,0.00
2018-05-19T02:22:31.436Z,0.00
2018-05-19T02:23:31.429Z,0.00
2018-05-19T02:24:31.433Z,0.00
2018-05-19T02:25:31.415Z,0.00
2018-05-19T02:26:31.400Z,0.00
2018-05-19T02:27:31.392Z,0.00
2018-05-19T02:28:31.384Z,0.00
2018-05-19T02:29:31.375Z,0.00
2018-05-19T02:30:31.372Z,0.00
2018-05-19T02:31:31.365Z,0.00
2018-05-19T02:32:31.362Z,0.00
2018-05-19T02:33:31.345Z,0.00
2018-05-19T02:34:31.338Z,0.00
2018-05-19T02:35:31.332Z,0.00
2018-05-19T02:36:31.322Z,0.00
2018-05-19T02:37:31.315Z,0.00
2018-05-19T02:38:31.310Z,0.00
2018-05-19T02:39:31.296Z,0.00
2018-05-19T02:40:31.286Z,0.00
2018-05-19T02:41:31.282Z,0.00
2018-05-19T02:42:31.272Z,0.00
2018-05-19T02:43:31.261Z,0.00
2018-05-19T02:44:31.259Z,0.00
2018-05-19T02:45:31.246Z,0.00
2018-05-19T02:46:31.244Z,0.00
2018-05-19T02:47:31.232Z,0.00
2018-05-19T02:48:31.220Z,0.00
2018-05-19T02:49:31.217Z,0.00
2018-05-19T02:50:31.210Z,0.00
2018-05-19T02:51:31.200Z,0.00
2018-05-19T02:52:31.194Z,4.00
2018-05-19T02:53:31.195Z,4.00
2018-05-19T02:54:31.177Z,4.00
2018-05-19T02:55:31.167Z,0.00
2018-05-19T02:56:31.163Z,0.00
2018-05-19T02:57:31.151Z,4.00
2018-05-19T02:58:31.145Z,4.00
2018-05-19T02:59:31.133Z,8.00
2018-05-19T03:00:31.125Z,4.00
2018-05-19T03:01:31.119Z,8.00
2018-05-19T03:02:31.107Z,4.00
2018-05-19T03:03:31.099Z,8.00
2018-05-19T03:04:31.094Z,8.00
2018-05-19T03:05:31.082Z,12.00
2018-05-19T03:06:31.079Z,12.00
2018-05-19T03:07:31.064Z,12.00
2018-05-19T03:08:31.068Z,12.00
2018-05-19T03:09:31.048Z,16.00
2018-05-19T03:10:31.041Z,20.00
2018-05-19T03:11:31.031Z,20.00
2018-05-19T03:12:31.030Z,24.00
2018-05-19T03:13:31.021Z,24.00
2018-05-19T03:14:31.024Z,32.00
2018-05-19T03:15:31.006Z,32.00
2018-05-19T03:16:30.992Z,36.00
2018-05-19T03:17:30.983Z,40.00
2018-05-19T03:18:30.976Z,48.00
2018-05-19T03:19:30.967Z,48.00
2018-05-19T03:20:30.962Z,56.00
2018-05-19T03:21:30.950Z,64.00
2018-05-19T03:22:30.943Z,68.00
2018-05-19T03:23:30.934Z,76.00
2018-05-19T03:24:30.927Z,84.00
2018-05-19T03:25:30.919Z,92.00
2018-05-19T03:26:30.929Z,104.00
2018-05-19T03:27:30.901Z,112.00
2018-05-19T03:28:30.922Z,124.00
2018-05-19T03:29:30.882Z,136.00
2018-05-19T03:30:30.879Z,148.00
2018-05-19T03:31:30.872Z,164.00
2018-05-19T03:32:30.863Z,180.00
2018-05-19T03:33:30.855Z,192.00
2018-05-19T03:34:30.854Z,208.00
2018-05-19T03:35:30.844Z,224.00
2018-05-19T03:36:30.828Z,244.00
2018-05-19T03:37:30.818Z,260.00
2018-05-19T03:38:30.814Z,280.00
2018-05-19T03:39:30.808Z,300.00
2018-05-19T03:40:30.797Z,316.00
2018-05-19T03:41:30.786Z,336.00
2018-05-19T03:42:30.782Z,356.00
2018-05-19T03:43:30.771Z,380.00
2018-05-19T03:44:30.767Z,400.00
2018-05-19T03:45:30.753Z,424.00
2018-05-19T03:46:30.750Z,448.00
2018-05-19T03:47:30.753Z,476.00
2018-05-19T03:48:30.732Z,496.00
2018-05-19T03:49:30.723Z,512.00
2018-05-19T03:50:30.713Z,528.00
2018-05-19T03:51:30.706Z,552.00
2018-05-19T03:52:30.701Z,572.00
2018-05-19T03:53:30.690Z,600.00
2018-05-19T03:54:30.681Z,628.00
2018-05-19T03:55:30.672Z,648.00
2018-05-19T03:56:30.667Z,676.00
2018-05-19T03:57:30.654Z,700.00
2018-05-19T03:58:30.648Z,732.00
2018-05-19T03:59:30.639Z,764.00
2018-05-19T04:00:30.639Z,796.00
2018-05-19T04:01:30.654Z,828.00
2018-05-19T04:02:30.618Z,860.00
2018-05-19T04:03:30.616Z,888.00
2018-05-19T04:04:30.599Z,916.00
2018-05-19T04:05:30.590Z,944.00
2018-05-19T04:06:30.582Z,964.00
2018-05-19T04:07:30.575Z,988.00
2018-05-19T04:08:30.587Z,1032.00
2018-05-19T04:09:30.567Z,1064.00
2018-05-19T04:10:30.574Z,1092.00
2018-05-19T04:11:30.542Z,1100.00
2018-05-19T04:12:30.534Z,1080.00
2018-05-19T04:13:30.529Z,1032.00
2018-05-19T04:14:30.520Z,992.00
2018-05-19T04:15:30.509Z,972.00
2018-05-19T04:16:30.502Z,972.00
2018-05-19T04:17:30.495Z,988.00
2018-05-19T04:18:30.484Z,1020.00
2018-05-19T04:19:30.479Z,1044.00
2018-05-19T04:20:30.472Z,1064.00
2018-05-19T04:21:30.460Z,1092.00
2018-05-19T04:22:30.458Z,1144.00
2018-05-19T04:23:30.446Z,1204.00
2018-05-19T04:24:30.442Z,1272.00
2018-05-19T04:25:30.428Z,1328.00
2018-05-19T04:26:30.418Z,1396.00
2018-05-19T04:27:30.411Z,1472.00
2018-05-19T04:28:30.404Z,1544.00
2018-05-19T04:29:30.400Z,1620.00
2018-05-19T04:30:30.390Z,1672.00
2018-05-19T04:31:30.383Z,1720.00
2018-05-19T04:32:30.373Z,1772.00
2018-05-19T04:33:30.361Z,1824.00
2018-05-19T04:34:30.356Z,1872.00
2018-05-19T04:35:30.347Z,1900.00
2018-05-19T04:36:30.366Z,1908.00
2018-05-19T04:37:30.337Z,1908.00
2018-05-19T04:38:30.328Z,1912.00
2018-05-19T04:39:30.323Z,1960.00
2018-05-19T04:40:30.307Z,2012.00
2018-05-19T04:41:30.302Z,2060.00
2018-05-19T04:42:30.295Z,2140.00
2018-05-19T04:43:30.292Z,2212.00
2018-05-19T04:44:30.281Z,2292.00
2018-05-19T04:45:30.273Z,2404.00
2018-05-19T04:46:30.266Z,2508.00
2018-05-19T04:47:30.262Z,2592.00
2018-05-19T04:48:30.248Z,2660.00
2018-05-19T04:49:30.251Z,2660.00
2018-05-19T04:50:30.234Z,2660.00
2018-05-19T04:51:30.234Z,2680.00
2018-05-19T04:52:30.218Z,2704.00
2018-05-19T04:53:30.210Z,2672.00
2018-05-19T04:54:30.201Z,2724.00
2018-05-19T04:55:30.195Z,2792.00
2018-05-19T04:56:30.185Z,2924.00
2018-05-19T04:57:30.179Z,3096.00
2018-05-19T04:58:30.171Z,3240.00
2018-05-19T04:59:30.162Z,3348.00
2018-05-19T05:00:30.236Z,3340.00
2018-05-19T05:01:30.146Z,3340.00
2018-05-19T05:02:30.140Z,3368.00
2018-05-19T05:03:30.132Z,3496.00
2018-05-19T05:04:30.739Z,3624.00
2018-05-19T05:05:30.129Z,3752.00
2018-05-19T05:06:30.111Z,3864.00
2018-05-19T05:07:30.103Z,3924.00
2018-05-19T05:08:30.095Z,3928.00
2018-05-19T05:09:30.089Z,3876.00
2018-05-19T05:10:30.081Z,3812.00
2018-05-19T05:11:30.076Z,3836.00
2018-05-19T05:12:30.069Z,3904.00
2018-05-19T05:13:30.063Z,4048.00
2018-05-19T05:14:30.050Z,4304.00
2018-05-19T05:15:30.043Z,4624.00
2018-05-19T05:16:30.036Z,4764.00
2018-05-19T05:17:30.032Z,4960.00
2018-05-19T05:18:30.059Z,5016.00
2018-05-19T05:19:30.029Z,5076.00
2018-05-19T05:20:30.009Z,5224.00
2018-05-19T05:21:30.021Z,5344.00
2018-05-19T05:22:29.998Z,5328.00
2018-05-19T05:23:30.005Z,5420.00
2018-05-19T05:24:29.978Z,5528.00
2018-05-19T05:25:29.973Z,5996.00
2018-05-19T05:26:29.969Z,5940.00
2018-05-19T05:27:29.959Z,6184.00
2018-05-19T05:28:29.950Z,6304.00
2018-05-19T05:29:29.943Z,6468.00
2018-05-19T05:30:29.935Z,6636.00
2018-05-19T05:31:29.980Z,6588.00
2018-05-19T05:32:29.922Z,6704.00
2018-05-19T05:33:29.916Z,7012.00
2018-05-19T05:34:29.913Z,7192.00
2018-05-19T05:35:29.899Z,7336.00
2018-05-19T05:36:29.895Z,7572.00
2018-05-19T05:37:29.891Z,7756.00
2018-05-19T05:38:29.882Z,7064.00
2018-05-19T05:39:29.878Z,7044.00
2018-05-19T05:40:29.874Z,7136.00
2018-05-19T05:41:29.859Z,7108.00
2018-05-19T05:42:29.851Z,7044.00
2018-05-19T05:43:29.848Z,6908.00
2018-05-19T05:44:29.841Z,6852.00
2018-05-19T05:45:29.841Z,6820.00
2018-05-19T05:46:29.834Z,6636.00
2018-05-19T05:47:29.821Z,6484.00
2018-05-19T05:48:29.823Z,6332.00
2018-05-19T05:49:29.810Z,6192.00
2018-05-19T05:50:29.803Z,6152.00
2018-05-19T05:51:29.797Z,6148.00
2018-05-19T05:52:29.794Z,6124.00
2018-05-19T05:53:29.786Z,6012.00
2018-05-19T05:54:29.786Z,5996.00
2018-05-19T05:55:29.768Z,6108.00
2018-05-19T05:56:29.768Z,6312.00
2018-05-19T05:57:29.757Z,6524.00
2018-05-19T05:58:29.794Z,6844.00
2018-05-19T05:59:29.831Z,7168.00
2018-05-19T06:00:29.748Z,7528.00
2018-05-19T06:01:29.735Z,7908.00
2018-05-19T06:02:29.726Z,8172.00
2018-05-19T06:03:29.723Z,8328.00
2018-05-19T06:04:29.715Z,8908.00
2018-05-19T06:05:29.723Z,9328.00
2018-05-19T06:06:29.745Z,9484.00
2018-05-19T06:07:29.697Z,9856.00
2018-05-19T06:08:29.693Z,10388.00
2018-05-19T06:09:29.683Z,10716.00
2018-05-19T06:10:29.676Z,10788.00
2018-05-19T06:11:29.677Z,10808.00
2018-05-19T06:12:29.662Z,10788.00
2018-05-19T06:13:29.661Z,10916.00
2018-05-19T06:14:29.653Z,11124.00
2018-05-19T06:15:29.655Z,11248.00
2018-05-19T06:16:29.641Z,11920.00
2018-05-19T06:17:29.636Z,11832.00
2018-05-19T06:18:29.712Z,11940.00
2018-05-19T06:19:29.623Z,11932.00
2018-05-19T06:20:29.619Z,12108.00
2018-05-19T06:21:29.613Z,13132.00
2018-05-19T06:22:29.610Z,13304.00
2018-05-19T06:23:29.605Z,13488.00
2018-05-19T06:24:29.598Z,13024.00
2018-05-19T06:25:29.620Z,13152.00
2018-05-19T06:26:29.590Z,13388.00
2018-05-19T06:27:29.579Z,13040.00
2018-05-19T06:28:29.577Z,14096.00
2018-05-19T06:29:30.267Z,13708.00
2018-05-19T06:30:29.567Z,12096.00
2018-05-19T06:31:29.567Z,11116.00
2018-05-19T06:32:29.555Z,10624.00
2018-05-19T06:33:29.548Z,10748.00
2018-05-19T06:34:29.547Z,10732.00
2018-05-19T06:35:29.546Z,10116.00
2018-05-19T06:36:29.534Z,10344.00
2018-05-19T06:37:29.531Z,10976.00
2018-05-19T06:38:29.524Z,11508.00
2018-05-19T06:39:29.523Z,12272.00
2018-05-19T06:40:29.520Z,13028.00
2018-05-19T06:41:29.511Z,13916.00
2018-05-19T06:42:29.506Z,13648.00
2018-05-19T06:43:29.503Z,12460.00
2018-05-19T06:44:29.499Z,12276.00
2018-05-19T06:45:29.491Z,12252.00
2018-05-19T06:46:29.483Z,12664.00
2018-05-19T06:47:29.483Z,13948.00
2018-05-19T06:48:29.476Z,13148.00
2018-05-19T06:49:29.473Z,12672.00
2018-05-19T06:50:29.489Z,12396.00
2018-05-19T06:51:29.469Z,12596.00
2018-05-19T06:52:29.462Z,13072.00
2018-05-19T06:53:29.453Z,13316.00
2018-05-19T06:54:29.461Z,13356.00
2018-05-19T06:55:29.445Z,13072.00
2018-05-19T06:56:29.440Z,13104.00
2018-05-19T06:57:29.436Z,14888.00
2018-05-19T06:58:29.434Z,16672.00
2018-05-19T06:59:29.425Z,15164.00
2018-05-19T07:00:29.421Z,15460.00
2018-05-19T07:01:29.422Z,14928.00
2018-05-19T07:02:29.417Z,15140.00
2018-05-19T07:03:29.408Z,14828.00
2018-05-19T07:04:29.426Z,14612.00
2018-05-19T07:05:29.400Z,15944.00
2018-05-19T07:06:29.397Z,19008.00
2018-05-19T07:07:29.388Z,16960.00
2018-05-19T07:08:29.385Z,18016.00
2018-05-19T07:09:29.379Z,18368.00
2018-05-19T07:10:29.384Z,18336.00
2018-05-19T07:11:29.379Z,18528.00
2018-05-19T07:12:29.373Z,16512.00
2018-05-19T07:13:29.377Z,15800.00
2018-05-19T07:14:29.361Z,15596.00
2018-05-19T07:15:29.359Z,15388.00
2018-05-19T07:16:29.370Z,15404.00
2018-05-19T07:17:29.349Z,15072.00
2018-05-19T07:18:29.347Z,14664.00
2018-05-19T07:19:29.346Z,15056.00
2018-05-19T07:20:31.363Z,15384.00
2018-05-19T07:21:29.343Z,16832.00
2018-05-19T07:22:29.336Z,18432.00
2018-05-19T07:23:29.330Z,19904.00
2018-05-19T07:24:29.325Z,21344.00
2018-05-19T07:25:29.324Z,20672.00
2018-05-19T07:26:29.316Z,20544.00
2018-05-19T07:27:29.331Z,18464.00
2018-05-19T07:28:29.316Z,18368.00
2018-05-19T07:29:30.310Z,19040.00
2018-05-19T07:30:29.327Z,20512.00
2018-05-19T07:31:29.303Z,21728.00
2018-05-19T07:32:30.305Z,19872.00
2018-05-19T07:33:29.299Z,19360.00
2018-05-19T07:34:29.800Z,18816.00
2018-05-19T07:35:29.287Z,17600.00
2018-05-19T07:36:29.299Z,16236.00
2018-05-19T07:37:29.280Z,14960.00
2018-05-19T07:38:29.285Z,14112.00
2018-05-19T07:39:29.284Z,13892.00
2018-05-19T07:40:29.308Z,13740.00
2018-05-19T07:41:29.269Z,13736.00
2018-05-19T07:42:29.274Z,13644.00
2018-05-19T07:43:29.274Z,13740.00
2018-05-19T07:44:29.257Z,14216.00
2018-05-19T07:45:29.283Z,15392.00
2018-05-19T07:46:29.264Z,14692.00
2018-05-19T07:47:29.262Z,14796.00
2018-05-19T07:48:29.256Z,13820.00
2018-05-19T07:49:29.251Z,13604.00
2018-05-19T07:50:29.258Z,14296.00
2018-05-19T07:51:29.234Z,14612.00
2018-05-19T07:52:29.233Z,33728.00
2018-05-19T07:53:29.230Z,22272.00
2018-05-19T07:54:29.244Z,42176.00
2018-05-19T07:55:29.224Z,28896.00
2018-05-19T07:56:29.219Z,16620.00
2018-05-19T07:57:29.218Z,29536.00
2018-05-19T07:58:29.213Z,38912.00
2018-05-19T07:59:30.799Z,15524.00
2018-05-19T08:00:29.208Z,18368.00
2018-05-19T08:01:29.224Z,32256.00
2018-05-19T08:02:29.203Z,25376.00
2018-05-19T08:03:29.204Z,50528.00
2018-05-19T08:04:29.199Z,36544.00
2018-05-19T08:05:29.194Z,50560.00
2018-05-19T08:06:29.192Z,50912.00
2018-05-19T08:07:29.189Z,51168.00
2018-05-19T08:08:29.184Z,50880.00
2018-05-19T08:09:29.190Z,51200.00
2018-05-19T08:10:29.196Z,52256.00
2018-05-19T08:11:29.181Z,53856.00
2018-05-19T08:12:29.228Z,48352.00
2018-05-19T08:13:29.184Z,54208.00
2018-05-19T08:14:29.184Z,54176.00
2018-05-19T08:15:29.178Z,53920.00
2018-05-19T08:16:29.190Z,51392.00
2018-05-19T08:17:29.180Z,51360.00
2018-05-19T08:18:29.230Z,53664.00
2018-05-19T08:19:29.190Z,54304.00
2018-05-19T08:20:29.194Z,52384.00
2018-05-19T08:21:29.186Z,51840.00
2018-05-19T08:22:29.184Z,51264.00
2018-05-19T08:23:29.188Z,57760.00
2018-05-19T08:24:29.188Z,57888.00
2018-05-19T08:25:29.185Z,60032.00
2018-05-19T08:26:29.200Z,60448.00
2018-05-19T08:27:29.195Z,60128.00
2018-05-19T08:28:29.197Z,61024.00
2018-05-19T08:29:29.193Z,61344.00
2018-05-19T08:30:29.264Z,61920.00
2018-05-19T08:31:29.207Z,60480.00
2018-05-19T08:32:29.205Z,60832.00
2018-05-19T08:33:29.210Z,61600.00
2018-05-19T08:34:29.216Z,60768.00
2018-05-19T08:35:29.219Z,61344.00
2018-05-19T08:36:29.219Z,58688.00
2018-05-19T08:37:29.224Z,35648.00
2018-05-19T08:38:29.229Z,34208.00
2018-05-19T08:39:29.249Z,30752.00
2018-05-19T08:40:29.237Z,30752.00
2018-05-19T08:41:29.240Z,42176.00
2018-05-19T08:42:29.247Z,32416.00
2018-05-19T08:43:29.250Z,62624.00
2018-05-19T08:44:29.259Z,61504.00
2018-05-19T08:45:29.260Z,63680.00
2018-05-19T08:46:29.266Z,62016.00
2018-05-19T08:47:29.270Z,61824.00
2018-05-19T08:48:29.298Z,66272.00
2018-05-19T08:49:29.278Z,68352.00
2018-05-19T08:50:29.318Z,65344.00
2018-05-19T08:51:29.287Z,61312.00
2018-05-19T08:52:29.301Z,65216.00
2018-05-19T08:53:29.507Z,64480.00
2018-05-19T08:54:29.306Z,65120.00
2018-05-19T08:55:29.308Z,66432.00
2018-05-19T08:56:29.318Z,67232.00
2018-05-19T08:57:29.324Z,66784.00
2018-05-19T08:58:29.327Z,64576.00
2018-05-19T08:59:29.843Z,18624.00
2018-05-19T09:00:29.366Z,29632.00
2018-05-19T09:01:29.348Z,52128.00
2018-05-19T09:02:29.351Z,51104.00
2018-05-19T09:03:29.362Z,69408.00
2018-05-19T09:04:29.371Z,67264.00
2018-05-19T09:05:29.373Z,64288.00
2018-05-19T09:06:29.386Z,67008.00
2018-05-19T09:07:29.382Z,61664.00
2018-05-19T09:08:29.390Z,39136.00
2018-05-19T09:09:29.394Z,66752.00
2018-05-19T09:10:29.402Z,25632.00
2018-05-19T09:11:29.413Z,22112.00
2018-05-19T09:12:29.414Z,25344.00
2018-05-19T09:13:29.420Z,69824.00
2018-05-19T09:14:29.438Z,34816.00
2018-05-19T09:15:29.433Z,30144.00
2018-05-19T09:16:29.438Z,35392.00
2018-05-19T09:17:29.439Z,44000.00
2018-05-19T09:18:29.441Z,49120.00
2018-05-19T09:19:29.444Z,31008.00
2018-05-19T09:20:29.450Z,25216.00
2018-05-19T09:21:29.459Z,23168.00
2018-05-19T09:22:29.462Z,23104.00
2018-05-19T09:23:29.469Z,23712.00
2018-05-19T09:24:29.473Z,22752.00
2018-05-19T09:25:29.471Z,24864.00
2018-05-19T09:26:29.476Z,40448.00
2018-05-19T09:27:29.486Z,42112.00
2018-05-19T09:28:29.485Z,47008.00
2018-05-19T09:29:29.491Z,64928.00
2018-05-19T09:30:29.493Z,47488.00
2018-05-19T09:31:29.493Z,86336.00
2018-05-19T09:32:29.504Z,27936.00
2018-05-19T09:33:29.501Z,24064.00
2018-05-19T09:34:29.507Z,23712.00
2018-05-19T09:35:29.506Z,36704.00
2018-05-19T09:36:29.521Z,42176.00
2018-05-19T09:37:29.519Z,47360.00
2018-05-19T09:38:29.521Z,27360.00
2018-05-19T09:39:29.522Z,24352.00
2018-05-19T09:40:29.524Z,28128.00
2018-05-19T09:41:29.549Z,46944.00
2018-05-19T09:42:29.613Z,62848.00
2018-05-19T09:43:29.538Z,29216.00
2018-05-19T09:44:29.539Z,40160.00
2018-05-19T09:45:29.542Z,23040.00
2018-05-19T09:46:29.541Z,20960.00
2018-05-19T09:47:29.629Z,19936.00
2018-05-19T09:48:29.550Z,19584.00
2018-05-19T09:49:29.566Z,19072.00
2018-05-19T09:50:29.556Z,19648.00
2018-05-19T09:51:29.558Z,21440.00
2018-05-19T09:52:29.563Z,21344.00
2018-05-19T09:53:29.559Z,19392.00
2018-05-19T09:54:29.563Z,17920.00
2018-05-19T09:55:29.562Z,17440.00
2018-05-19T09:56:29.567Z,17856.00
2018-05-19T09:57:29.572Z,18656.00
2018-05-19T09:58:29.572Z,19424.00
2018-05-19T09:59:29.638Z,19264.00
2018-05-19T10:00:29.570Z,20288.00
2018-05-19T10:01:29.572Z,22656.00
2018-05-19T10:02:29.575Z,55680.00
2018-05-19T10:03:29.577Z,23776.00
2018-05-19T10:04:29.574Z,24640.00
2018-05-19T10:05:29.587Z,26400.00
2018-05-19T10:06:29.577Z,31520.00
2018-05-19T10:07:29.575Z,68416.00
2018-05-19T10:08:29.577Z,96416.00
2018-05-19T10:09:29.579Z,56640.00
2018-05-19T10:10:29.578Z,96928.00
2018-05-19T10:11:29.669Z,97184.00
2018-05-19T10:12:29.595Z,94720.00
2018-05-19T10:13:29.583Z,91904.00
2018-05-19T10:14:29.583Z,88032.00
2018-05-19T10:15:29.581Z,85600.00
2018-05-19T10:16:29.593Z,83168.00
2018-05-19T10:17:29.595Z,37600.00
2018-05-19T10:18:29.590Z,94752.00
2018-05-19T10:19:29.595Z,91744.00
2018-05-19T10:20:29.598Z,92960.00
2018-05-19T10:21:29.594Z,91936.00
2018-05-19T10:22:29.602Z,95840.00
2018-05-19T10:23:29.609Z,94112.00
2018-05-19T10:24:29.613Z,93728.00
2018-05-19T10:25:29.623Z,91744.00
2018-05-19T10:26:29.620Z,98048.00
2018-05-19T10:27:29.623Z,103744.00
2018-05-19T10:28:29.628Z,103648.00
2018-05-19T10:29:29.640Z,101344.00
2018-05-19T10:30:29.641Z,101792.00
2018-05-19T10:31:29.650Z,99968.00
2018-05-19T10:32:29.653Z,95904.00
2018-05-19T10:33:29.661Z,96224.00
2018-05-19T10:34:29.662Z,96288.00
2018-05-19T10:35:29.717Z,93984.00
2018-05-19T10:36:29.679Z,94048.00
2018-05-19T10:37:29.687Z,95328.00
2018-05-19T10:38:29.694Z,93728.00
2018-05-19T10:39:29.701Z,92352.00
2018-05-19T10:40:29.715Z,90144.00
2018-05-19T10:41:29.711Z,92320.00
2018-05-19T10:42:29.728Z,29216.00
2018-05-19T10:43:29.730Z,26816.00
2018-05-19T10:44:29.738Z,24672.00
2018-05-19T10:45:29.746Z,25280.00
2018-05-19T10:46:29.754Z,26912.00
2018-05-19T10:47:29.758Z,27104.00
2018-05-19T10:48:29.766Z,27648.00
2018-05-19T10:49:29.772Z,29152.00
2018-05-19T10:50:29.783Z,29984.00
2018-05-19T10:51:29.795Z,29632.00
2018-05-19T10:52:29.798Z,28800.00
2018-05-19T10:53:29.803Z,29184.00
2018-05-19T10:54:29.803Z,32704.00
2018-05-19T10:55:29.812Z,73088.00
2018-05-19T10:56:29.821Z,47264.00
2018-05-19T10:57:29.825Z,81824.00
2018-05-19T10:58:29.829Z,88864.00
2018-05-19T10:59:29.836Z,66784.00
2018-05-19T11:00:29.842Z,88288.00
2018-05-19T11:01:29.845Z,38016.00
2018-05-19T11:02:29.849Z,40032.00
2018-05-19T11:03:29.856Z,87520.00
2018-05-19T11:04:29.861Z,41600.00
2018-05-19T11:05:29.864Z,38656.00
2018-05-19T11:06:29.872Z,36320.00
2018-05-19T11:07:29.876Z,35296.00
2018-05-19T11:08:29.877Z,77056.00
2018-05-19T11:09:29.884Z,68384.00
2018-05-19T11:10:29.889Z,51584.00
2018-05-19T11:11:29.896Z,95840.00
2018-05-19T11:12:29.903Z,74592.00
2018-05-19T11:13:29.902Z,88544.00
2018-05-19T11:14:29.911Z,92480.00
2018-05-19T11:15:29.915Z,88544.00
2018-05-19T11:16:29.915Z,84128.00
2018-05-19T11:17:29.920Z,82592.00
2018-05-19T11:18:29.937Z,90688.00
2018-05-19T11:19:29.936Z,91360.00
2018-05-19T11:20:29.941Z,26176.00
2018-05-19T11:21:29.942Z,24576.00
2018-05-19T11:22:29.949Z,23296.00
2018-05-19T11:23:29.957Z,23360.00
2018-05-19T11:24:29.964Z,23872.00
2018-05-19T11:25:29.967Z,24480.00
2018-05-19T11:26:29.980Z,25184.00
2018-05-19T11:27:29.979Z,26304.00
2018-05-19T11:28:29.978Z,43584.00
2018-05-19T11:29:29.985Z,30176.00
2018-05-19T11:30:29.998Z,29024.00
2018-05-19T11:31:29.997Z,29216.00
2018-05-19T11:32:29.999Z,46496.00
2018-05-19T11:33:30.008Z,40960.00
2018-05-19T11:34:30.007Z,35008.00
2018-05-19T11:35:30.011Z,32032.00
2018-05-19T11:36:30.016Z,38624.00
2018-05-19T11:37:30.018Z,94816.00
2018-05-19T11:38:30.023Z,100064.00
2018-05-19T11:39:30.031Z,99392.00
2018-05-19T11:40:30.049Z,102752.00
2018-05-19T11:41:30.087Z,108928.00
2018-05-19T11:42:30.042Z,109344.00
2018-05-19T11:43:30.043Z,107008.00
2018-05-19T11:44:30.054Z,103520.00
2018-05-19T11:45:30.051Z,96736.00
2018-05-19T11:46:30.061Z,99008.00
2018-05-19T11:47:30.968Z,53568.00
2018-05-19T11:48:30.068Z,108032.00
2018-05-19T11:49:30.071Z,97568.00
2018-05-19T11:50:30.083Z,107872.00
2018-05-19T11:51:30.085Z,109312.00
2018-05-19T11:52:30.098Z,109856.00
2018-05-19T11:53:30.100Z,105760.00
2018-05-19T11:54:30.112Z,104352.00
2018-05-19T11:55:30.106Z,101984.00
2018-05-19T11:56:30.135Z,95840.00
2018-05-19T11:57:30.126Z,98560.00
2018-05-19T11:58:30.176Z,95072.00
2018-05-19T11:59:30.134Z,98688.00
2018-05-19T12:00:30.137Z,99776.00
2018-05-19T12:01:30.143Z,99872.00
2018-05-19T12:02:30.153Z,86304.00
2018-05-19T12:03:30.163Z,96064.00
2018-05-19T12:04:30.168Z,96672.00
2018-05-19T12:05:30.174Z,90144.00
2018-05-19T12:06:30.188Z,97152.00
2018-05-19T12:07:30.191Z,98080.00
2018-05-19T12:08:30.209Z,101600.00
2018-05-19T12:09:30.205Z,104192.00
2018-05-19T12:10:30.233Z,105344.00
2018-05-19T12:11:30.221Z,101344.00
2018-05-19T12:12:30.233Z,97920.00
2018-05-19T12:13:30.235Z,92480.00